createdAt,value
2017-10-02T00:00:04.234Z,10.60
2017-10-02T00:02:31.276Z,10.60
2017-10-02T00:04:58.398Z,10.50
2017-10-02T00:07:24.734Z,10.50
2017-10-02T00:09:51.138Z,10.50
2017-10-02T00:12:17.527Z,10.50
2017-10-02T00:14:44.584Z,10.40
2017-10-02T00:17:10.921Z,10.40
2017-10-02T00:19:37.957Z,10.30
2017-10-02T00:22:05.017Z,10.30
2017-10-02T00:24:32.089Z,10.30
2017-10-02T00:26:58.457Z,10.30
2017-10-02T00:29:24.747Z,10.20
2017-10-02T00:31:51.108Z,10.20
2017-10-02T00:34:17.488Z,10.30
2017-10-02T00:36:51.534Z,10.40
2017-10-02T00:39:18.035Z,10.40
2017-10-02T00:41:44.348Z,10.40
2017-10-02T00:44:10.641Z,10.30
2017-10-02T00:46:37.006Z,10.20
2017-10-02T00:49:04.121Z,10.10
2017-10-02T00:51:30.520Z,10.10
2017-10-02T00:53:56.901Z,9.90
2017-10-02T00:56:23.204Z,9.90
2017-10-02T00:58:49.515Z,9.80
2017-10-02T01:01:15.877Z,9.90
2017-10-02T01:03:42.195Z,9.80
2017-10-02T01:06:08.737Z,9.80
2017-10-02T01:08:35.042Z,9.80
2017-10-02T01:11:01.341Z,9.80
2017-10-02T01:13:27.696Z,9.70
2017-10-02T01:15:54.837Z,9.70
2017-10-02T01:18:21.924Z,9.70
2017-10-02T01:20:48.282Z,9.60
2017-10-02T01:23:14.553Z,9.60
2017-10-02T01:25:41.757Z,9.50
2017-10-02T01:28:08.342Z,9.50
2017-10-02T01:30:35.406Z,9.40
2017-10-02T01:33:01.771Z,9.40
2017-10-02T01:35:28.096Z,9.40
2017-10-02T01:37:54.477Z,9.30
2017-10-02T01:40:21.554Z,9.20
2017-10-02T01:42:47.883Z,9.10
2017-10-02T01:45:14.179Z,9.20
2017-10-02T01:47:40.595Z,9.30
2017-10-02T01:50:06.966Z,9.20
2017-10-02T01:52:34.129Z,9.20
2017-10-02T01:55:00.483Z,9.20
2017-10-02T01:57:26.827Z,9.20
2017-10-02T01:59:53.116Z,9.20
2017-10-02T02:02:19.482Z,9.20
2017-10-02T02:04:45.807Z,9.10
2017-10-02T02:07:12.149Z,9.10
2017-10-02T02:09:38.487Z,9.10
2017-10-02T02:12:04.806Z,9.00
2017-10-02T02:14:31.118Z,9.00
2017-10-02T02:16:57.510Z,9.00
2017-10-02T02:19:24.557Z,9.00
2017-10-02T02:21:50.925Z,8.90
2017-10-02T02:24:17.300Z,8.90
2017-10-02T02:26:43.691Z,8.90
2017-10-02T02:29:09.994Z,8.90
2017-10-02T02:31:37.045Z,8.90
2017-10-02T02:34:03.404Z,8.80
2017-10-02T02:36:29.792Z,8.80
2017-10-02T02:38:56.130Z,8.70
2017-10-02T02:41:23.232Z,8.60
2017-10-02T02:43:49.550Z,8.60
2017-10-02T02:46:15.894Z,8.60
2017-10-02T02:48:42.617Z,8.60
2017-10-02T02:51:08.958Z,8.60
2017-10-02T02:53:35.257Z,8.60
2017-10-02T02:56:02.431Z,8.60
2017-10-02T02:58:28.739Z,8.60
2017-10-02T03:00:55.801Z,8.60
2017-10-02T03:03:22.105Z,8.50
2017-10-02T03:05:48.471Z,8.50
2017-10-02T03:08:14.787Z,8.50
2017-10-02T03:10:41.889Z,8.60
2017-10-02T03:13:08.226Z,8.60
2017-10-02T03:15:34.581Z,8.60
2017-10-02T03:18:01.643Z,8.50
2017-10-02T03:20:28.767Z,8.40
2017-10-02T03:22:55.097Z,8.40
2017-10-02T03:25:22.248Z,8.40
2017-10-02T03:27:48.566Z,8.40
2017-10-02T03:30:14.911Z,8.40
2017-10-02T03:32:41.971Z,8.30
2017-10-02T03:35:08.351Z,8.20
2017-10-02T03:37:34.685Z,8.30
2017-10-02T03:40:01.011Z,8.30
2017-10-02T03:42:27.355Z,8.30
2017-10-02T03:44:53.659Z,8.20
2017-10-02T03:47:20.037Z,8.20
2017-10-02T03:49:46.393Z,8.20
2017-10-02T03:52:13.531Z,8.20
2017-10-02T03:54:39.847Z,8.10
2017-10-02T03:57:06.128Z,8.10
2017-10-02T03:59:32.473Z,8.10
2017-10-02T04:01:58.840Z,8.00
2017-10-02T04:04:25.147Z,8.10
2017-10-02T04:06:51.495Z,8.00
2017-10-02T04:09:17.800Z,8.00
2017-10-02T04:11:44.111Z,8.00
2017-10-02T04:14:11.221Z,8.00
2017-10-02T04:16:37.506Z,8.00
2017-10-02T04:19:03.808Z,8.10
2017-10-02T04:21:30.839Z,8.10
2017-10-02T04:23:57.988Z,8.20
2017-10-02T04:26:24.266Z,8.10
2017-10-02T04:28:50.568Z,8.30
2017-10-02T04:31:17.660Z,8.40
2017-10-02T04:33:43.996Z,8.40
2017-10-02T04:36:10.306Z,8.40
2017-10-02T04:38:36.670Z,8.50
2017-10-02T04:41:03.011Z,8.50
2017-10-02T04:43:29.312Z,8.60
2017-10-02T04:45:55.643Z,8.50
2017-10-02T04:48:22.117Z,8.60
2017-10-02T04:50:49.153Z,8.60
2017-10-02T04:53:15.495Z,8.60
2017-10-02T04:55:41.827Z,8.60
2017-10-02T04:58:08.143Z,8.70
2017-10-02T05:00:34.578Z,8.70
2017-10-02T05:03:00.954Z,8.70
2017-10-02T05:05:28.049Z,8.80
2017-10-02T05:07:54.381Z,8.80
2017-10-02T05:10:20.849Z,8.90
2017-10-02T05:12:47.290Z,9.00
2017-10-02T05:15:14.363Z,9.10
2017-10-02T05:17:40.697Z,9.10
2017-10-02T05:20:07.061Z,9.10
2017-10-02T05:22:33.425Z,9.10
2017-10-02T05:25:00.546Z,9.20
2017-10-02T05:27:26.870Z,9.20
2017-10-02T05:29:53.304Z,9.20
2017-10-02T05:32:19.670Z,9.30
2017-10-02T05:34:46.734Z,9.40
2017-10-02T05:37:13.827Z,9.40
2017-10-02T05:39:40.391Z,9.30
2017-10-02T05:42:06.817Z,9.40
2017-10-02T05:44:33.210Z,9.40
2017-10-02T05:46:59.621Z,9.50
2017-10-02T05:49:26.071Z,9.60
2017-10-02T05:51:52.455Z,9.70
2017-10-02T05:54:18.816Z,9.70
2017-10-02T05:56:45.911Z,10.00
2017-10-02T05:59:12.351Z,10.00
2017-10-02T06:01:38.774Z,10.00
2017-10-02T06:04:05.117Z,10.10
2017-10-02T06:06:31.449Z,10.20
2017-10-02T06:08:57.857Z,10.40
2017-10-02T06:11:24.255Z,10.50
2017-10-02T06:13:51.323Z,11.00
2017-10-02T06:16:18.439Z,11.10
2017-10-02T06:18:44.844Z,11.10
2017-10-02T06:21:11.202Z,11.10
2017-10-02T06:23:37.537Z,11.30
2017-10-02T06:26:03.895Z,11.50
2017-10-02T06:28:30.280Z,11.70
2017-10-02T06:30:56.645Z,12.10
2017-10-02T06:33:23.800Z,12.20
2017-10-02T06:35:50.822Z,12.50
2017-10-02T06:38:24.423Z,12.40
2017-10-02T06:40:50.753Z,12.70
2017-10-02T06:43:17.119Z,12.50
2017-10-02T06:45:44.238Z,12.70
2017-10-02T06:48:10.659Z,12.70
2017-10-02T06:50:37.082Z,12.80
2017-10-02T06:53:03.536Z,13.10
2017-10-02T06:55:29.948Z,13.00
2017-10-02T06:57:56.288Z,13.10
2017-10-02T07:00:22.673Z,13.00
2017-10-02T07:02:49.810Z,13.40
2017-10-02T07:05:16.897Z,13.50
2017-10-02T07:07:43.514Z,13.50
2017-10-02T07:10:09.972Z,13.50
2017-10-02T07:12:36.384Z,13.80
2017-10-02T07:15:02.781Z,13.90
2017-10-02T07:17:29.129Z,14.00
2017-10-02T07:19:56.251Z,14.00
2017-10-02T07:22:22.581Z,14.00
2017-10-02T07:24:48.984Z,14.20
2017-10-02T07:27:15.356Z,14.20
2017-10-02T07:29:41.762Z,14.40
2017-10-02T07:32:08.170Z,14.50
2017-10-02T07:34:34.660Z,14.70
2017-10-02T07:37:01.203Z,14.50
2017-10-02T07:39:28.851Z,14.80
2017-10-02T07:41:55.257Z,14.80
2017-10-02T07:44:21.863Z,15.00
2017-10-02T07:46:48.199Z,15.20
2017-10-02T07:49:14.696Z,15.30
2017-10-02T07:51:41.033Z,15.40
2017-10-02T07:54:07.456Z,15.60
2017-10-02T07:56:34.262Z,15.50
2017-10-02T07:59:00.682Z,15.30
2017-10-02T08:01:27.025Z,15.30
2017-10-02T08:03:53.596Z,15.30
2017-10-02T08:06:19.965Z,15.40
2017-10-02T08:08:46.362Z,15.60
2017-10-02T08:11:12.762Z,15.80
2017-10-02T08:13:39.135Z,15.70
2017-10-02T08:16:06.467Z,15.90
2017-10-02T08:18:32.871Z,15.90
2017-10-02T08:20:59.225Z,16.00
2017-10-02T08:23:25.724Z,16.20
2017-10-02T08:25:52.114Z,16.40
2017-10-02T08:28:19.235Z,16.70
2017-10-02T08:30:45.820Z,16.80
2017-10-02T08:33:12.913Z,16.70
2017-10-02T08:35:39.275Z,16.70
2017-10-02T08:38:05.561Z,16.80
2017-10-02T08:40:32.030Z,17.20
2017-10-02T08:42:58.408Z,17.40
2017-10-02T08:45:24.774Z,17.50
2017-10-02T08:47:51.154Z,17.80
2017-10-02T08:50:17.499Z,18.00
2017-10-02T08:52:44.603Z,18.10
2017-10-02T08:55:10.989Z,18.10
2017-10-02T09:00:38.517Z,18.50
2017-10-02T09:03:04.879Z,18.40
2017-10-02T09:05:31.293Z,18.40
2017-10-02T09:07:57.669Z,18.30
2017-10-02T09:10:24.072Z,18.50
2017-10-02T09:12:50.486Z,18.30
2017-10-02T09:15:16.846Z,18.40
2017-10-02T09:17:43.916Z,18.40
2017-10-02T09:20:10.972Z,18.30
2017-10-02T09:22:37.364Z,18.40
2017-10-02T09:25:03.720Z,18.30
2017-10-02T09:27:30.806Z,18.40
2017-10-02T09:29:57.208Z,18.30
2017-10-02T09:32:24.312Z,18.20
2017-10-02T09:34:51.009Z,18.20
2017-10-02T09:37:17.484Z,18.20
2017-10-02T09:39:44.081Z,18.30
2017-10-02T09:42:10.522Z,18.50
2017-10-02T09:44:36.844Z,18.60
2017-10-02T09:47:03.180Z,18.80
2017-10-02T09:49:29.529Z,19.10
2017-10-02T09:51:55.846Z,19.60
2017-10-02T09:54:22.279Z,19.70
2017-10-02T09:56:48.675Z,20.20
2017-10-02T09:59:14.985Z,20.50
2017-10-02T10:01:41.394Z,20.90
2017-10-02T10:04:07.765Z,20.90
2017-10-02T10:06:34.243Z,20.70
2017-10-02T10:09:01.492Z,20.20
2017-10-02T10:11:27.858Z,20.20
2017-10-02T10:13:54.285Z,20.30
2017-10-02T10:16:20.688Z,20.30
2017-10-02T10:18:47.077Z,20.10
2017-10-02T10:21:13.457Z,20.20
2017-10-02T10:23:39.884Z,20.20
2017-10-02T10:26:06.228Z,20.10
2017-10-02T10:28:32.510Z,19.70
2017-10-02T10:30:58.873Z,19.90
2017-10-02T10:33:25.294Z,19.70
2017-10-02T10:35:52.453Z,19.70
2017-10-02T10:38:18.810Z,19.60
2017-10-02T10:40:45.155Z,20.20
2017-10-02T10:43:11.545Z,20.20
2017-10-02T10:45:38.785Z,20.10
2017-10-02T10:48:05.896Z,19.70
2017-10-02T10:50:32.313Z,19.60
2017-10-02T10:52:58.758Z,19.50
2017-10-02T10:55:25.061Z,19.90
2017-10-02T10:57:51.429Z,19.80
2017-10-02T11:00:17.757Z,19.90
2017-10-02T11:02:45.419Z,20.00
2017-10-02T11:05:11.763Z,20.40
2017-10-02T11:07:38.129Z,19.90
2017-10-02T11:10:05.216Z,20.20
2017-10-02T11:12:31.521Z,20.10
2017-10-02T11:14:57.865Z,20.60
2017-10-02T11:17:24.173Z,20.70
2017-10-02T11:19:51.282Z,22.40
2017-10-02T11:22:17.646Z,22.30
2017-10-02T11:24:44.800Z,22.50
2017-10-02T11:27:11.834Z,22.30
2017-10-02T11:29:38.185Z,22.20
2017-10-02T11:32:04.644Z,22.30
2017-10-02T11:34:31.006Z,22.10
2017-10-02T11:36:57.515Z,22.40
2017-10-02T11:39:23.842Z,21.90
2017-10-02T11:41:50.225Z,21.50
2017-10-02T11:44:16.863Z,22.10
2017-10-02T11:46:44.695Z,21.80
2017-10-02T11:49:11.038Z,21.80
2017-10-02T11:51:37.389Z,21.80
2017-10-02T11:54:03.821Z,21.20
2017-10-02T11:56:30.225Z,21.00
2017-10-02T11:58:56.777Z,21.00
2017-10-02T12:01:23.090Z,20.90
2017-10-02T12:03:49.419Z,20.90
2017-10-02T12:06:15.792Z,20.50
2017-10-02T12:08:43.000Z,20.10
2017-10-02T12:11:09.348Z,20.10
2017-10-02T12:13:35.706Z,20.30
2017-10-02T12:16:02.020Z,20.30
2017-10-02T12:18:28.316Z,20.30
2017-10-02T12:20:54.660Z,20.00
2017-10-02T12:23:20.983Z,19.90
2017-10-02T12:25:47.458Z,19.90
2017-10-02T12:28:13.816Z,19.60
2017-10-02T12:30:40.166Z,19.70
2017-10-02T12:33:06.492Z,19.60
2017-10-02T12:35:32.826Z,19.70
2017-10-02T12:37:59.124Z,19.90
2017-10-02T12:40:25.420Z,20.10
2017-10-02T12:42:51.817Z,20.00
2017-10-02T12:45:18.117Z,19.80
2017-10-02T12:47:44.525Z,19.80
2017-10-02T12:50:12.826Z,19.80
2017-10-02T12:52:39.124Z,20.10
2017-10-02T12:55:05.513Z,20.00
2017-10-02T12:57:32.562Z,19.60
2017-10-02T12:59:59.711Z,19.30
2017-10-02T13:02:27.286Z,19.10
2017-10-02T13:04:53.670Z,19.10
2017-10-02T13:07:20.002Z,19.10
2017-10-02T13:09:47.202Z,19.00
2017-10-02T13:12:13.504Z,18.90
2017-10-02T13:14:40.636Z,18.70
2017-10-02T13:17:06.964Z,18.70
2017-10-02T13:19:33.320Z,18.50
2017-10-02T13:22:00.477Z,18.40
2017-10-02T13:24:26.851Z,18.40
2017-10-02T13:26:53.173Z,18.30
2017-10-02T13:29:19.517Z,18.40
2017-10-02T13:31:45.893Z,18.30
2017-10-02T13:34:12.961Z,18.20
2017-10-02T13:36:39.281Z,18.20
2017-10-02T13:39:06.360Z,18.20
2017-10-02T13:41:32.650Z,18.20
2017-10-02T13:43:59.682Z,17.90
2017-10-02T13:46:26.089Z,17.90
2017-10-02T13:48:52.395Z,17.90
2017-10-02T13:51:18.778Z,17.90
2017-10-02T13:53:45.238Z,17.70
2017-10-02T13:56:12.293Z,17.60
2017-10-02T13:58:39.356Z,17.40
2017-10-02T14:01:05.746Z,17.40
2017-10-02T14:03:39.817Z,17.50
2017-10-02T14:06:06.240Z,17.40
2017-10-02T14:08:32.662Z,17.40
2017-10-02T14:10:59.009Z,17.50
2017-10-02T14:13:25.785Z,17.60
2017-10-02T14:15:52.136Z,17.60
2017-10-02T14:18:18.448Z,17.00
2017-10-02T14:20:44.875Z,17.00
2017-10-02T14:23:11.174Z,16.90
2017-10-02T14:25:37.583Z,17.00
2017-10-02T14:28:04.682Z,17.00
2017-10-02T14:30:31.046Z,16.90
2017-10-02T14:32:57.347Z,16.90
2017-10-02T14:35:23.688Z,16.80
2017-10-02T14:37:50.106Z,16.70
2017-10-02T14:40:16.506Z,16.60
2017-10-02T14:42:42.940Z,16.70
2017-10-02T14:45:09.365Z,16.50
2017-10-02T14:47:35.700Z,16.40
2017-10-02T14:50:02.133Z,16.40
2017-10-02T14:52:28.443Z,16.50
2017-10-02T14:54:55.513Z,16.50
2017-10-02T14:57:21.903Z,16.50
2017-10-02T14:59:48.226Z,16.50
2017-10-02T15:02:14.549Z,16.40
2017-10-02T15:04:41.023Z,16.30
2017-10-02T15:07:08.077Z,16.20
2017-10-02T15:09:34.444Z,16.10
2017-10-02T15:12:00.947Z,16.40
2017-10-02T15:14:28.005Z,16.40
2017-10-02T15:16:54.369Z,16.40
2017-10-02T15:19:20.789Z,16.40
2017-10-02T15:21:47.177Z,16.50
2017-10-02T15:24:14.512Z,16.50
2017-10-02T15:26:40.826Z,16.50
2017-10-02T15:29:07.266Z,16.50
2017-10-02T15:31:33.603Z,16.50
2017-10-02T15:33:59.993Z,16.50
2017-10-02T15:36:26.347Z,16.40
2017-10-02T15:38:52.742Z,16.40
2017-10-02T15:41:19.864Z,16.30
2017-10-02T15:43:46.262Z,16.30
2017-10-02T15:46:12.618Z,16.30
2017-10-02T15:48:39.016Z,16.30
2017-10-02T15:51:05.292Z,16.10
2017-10-02T15:53:31.629Z,15.90
2017-10-02T15:55:58.027Z,16.10
2017-10-02T15:58:24.399Z,16.10
2017-10-02T16:00:51.507Z,16.00
2017-10-02T16:03:17.940Z,16.00
2017-10-02T16:05:44.386Z,15.90
2017-10-02T16:08:10.718Z,15.80
2017-10-02T16:10:37.169Z,15.90
2017-10-02T16:13:03.563Z,15.90
2017-10-02T16:15:30.038Z,15.70
2017-10-02T16:17:56.493Z,15.60
2017-10-02T16:20:23.596Z,15.40
2017-10-02T16:22:49.999Z,15.40
2017-10-02T16:25:16.425Z,15.40
2017-10-02T16:27:42.788Z,15.30
2017-10-02T16:30:09.121Z,15.30
2017-10-02T16:32:35.526Z,15.20
2017-10-02T16:35:01.950Z,15.20
2017-10-02T16:37:29.041Z,15.20
2017-10-02T16:39:55.448Z,15.20
2017-10-02T16:42:21.798Z,15.20
2017-10-02T16:44:48.190Z,15.10
2017-10-02T16:47:14.558Z,15.10
2017-10-02T16:49:40.895Z,15.00
2017-10-02T16:52:07.321Z,15.10
2017-10-02T16:54:34.036Z,15.10
2017-10-02T16:57:00.354Z,15.10
2017-10-02T16:59:27.464Z,15.00
2017-10-02T17:01:53.834Z,15.00
2017-10-02T17:04:20.190Z,14.90
2017-10-02T17:06:46.532Z,15.00
2017-10-02T17:09:12.971Z,15.00
2017-10-02T17:11:39.304Z,15.00
2017-10-02T17:14:05.809Z,14.90
2017-10-02T17:16:32.130Z,15.00
2017-10-02T17:18:59.209Z,14.90
2017-10-02T17:21:25.729Z,14.90
2017-10-02T17:23:52.285Z,14.90
2017-10-02T17:26:18.656Z,14.90
2017-10-02T17:28:45.084Z,14.80
2017-10-02T17:31:11.477Z,14.80
2017-10-02T17:33:37.836Z,14.80
2017-10-02T17:36:11.221Z,14.80
2017-10-02T17:38:37.549Z,14.80
2017-10-02T17:41:03.985Z,14.80
2017-10-02T17:43:30.480Z,14.70
2017-10-02T17:45:57.557Z,14.80
2017-10-02T17:48:23.941Z,14.80
2017-10-02T17:50:50.321Z,14.80
2017-10-02T17:53:16.705Z,14.70
2017-10-02T17:55:43.865Z,14.70
2017-10-02T17:58:10.294Z,14.60
2017-10-02T18:00:36.683Z,14.70
2017-10-02T18:03:03.034Z,14.60
2017-10-02T18:05:29.435Z,14.70
2017-10-02T18:07:55.815Z,14.60
2017-10-02T18:10:22.147Z,14.70
2017-10-02T18:12:50.382Z,14.60
2017-10-02T18:15:16.841Z,14.60
2017-10-02T18:17:43.228Z,14.70
2017-10-02T18:20:09.636Z,14.70
2017-10-02T18:22:36.864Z,14.70
2017-10-02T18:25:03.287Z,14.70
2017-10-02T18:27:29.744Z,14.70
2017-10-02T18:29:56.223Z,14.80
2017-10-02T18:32:22.601Z,14.70
2017-10-02T18:34:50.000Z,14.70
2017-10-02T18:37:16.537Z,14.70
2017-10-02T18:39:42.973Z,14.70
2017-10-02T18:42:11.260Z,14.70
2017-10-02T18:44:37.712Z,14.70
2017-10-02T18:47:04.149Z,14.70
2017-10-02T18:49:30.561Z,14.70
2017-10-02T18:51:56.999Z,14.70
2017-10-02T18:54:23.427Z,14.80
2017-10-02T18:56:50.025Z,14.70
2017-10-02T18:59:17.257Z,14.80
2017-10-02T19:01:43.776Z,14.80
2017-10-02T19:04:10.491Z,14.80
2017-10-02T19:06:36.870Z,14.90
2017-10-02T19:09:03.370Z,14.90
2017-10-02T19:11:30.706Z,14.90
2017-10-02T19:13:57.098Z,15.00
2017-10-02T19:16:23.470Z,15.00
2017-10-02T19:18:49.961Z,15.00
2017-10-02T19:21:16.380Z,15.00
2017-10-02T19:23:42.813Z,15.00
2017-10-02T19:26:12.028Z,15.00
2017-10-02T19:28:38.593Z,15.00
2017-10-02T19:31:05.729Z,15.10
2017-10-02T19:33:32.204Z,15.10
2017-10-02T19:35:58.626Z,15.10
2017-10-02T19:38:25.062Z,15.10
2017-10-02T19:40:51.546Z,15.00
2017-10-02T19:43:18.790Z,15.00
2017-10-02T19:45:45.158Z,15.00
2017-10-02T19:48:12.335Z,15.10
2017-10-02T19:50:38.755Z,15.10
2017-10-02T19:53:05.139Z,15.10
2017-10-02T19:55:31.593Z,15.10
2017-10-02T19:57:58.051Z,15.00
2017-10-02T20:00:25.465Z,14.90
2017-10-02T20:02:51.841Z,14.90
2017-10-02T20:05:18.201Z,14.90
2017-10-02T20:07:44.486Z,14.80
2017-10-02T20:10:12.641Z,14.70
2017-10-02T20:12:39.225Z,14.60
2017-10-02T20:15:05.766Z,14.60
2017-10-02T20:17:32.308Z,14.60
2017-10-02T20:19:58.664Z,14.60
2017-10-02T20:22:25.252Z,14.70
2017-10-02T20:24:52.395Z,14.70
2017-10-02T20:27:19.572Z,14.70
2017-10-02T20:29:46.072Z,14.70
2017-10-02T20:32:12.572Z,14.70
2017-10-02T20:34:38.954Z,14.70
2017-10-02T20:37:06.051Z,14.60
2017-10-02T20:39:32.419Z,14.60
2017-10-02T20:41:59.554Z,14.60
2017-10-02T20:44:26.066Z,14.60
2017-10-02T20:46:52.590Z,14.60
2017-10-02T20:49:18.982Z,14.70
2017-10-02T20:51:46.115Z,14.70
2017-10-02T20:54:13.291Z,14.70
2017-10-02T20:56:40.405Z,14.70
2017-10-02T20:59:06.819Z,14.80
2017-10-02T21:01:33.171Z,14.70
2017-10-02T21:04:00.291Z,14.80
2017-10-02T21:06:26.649Z,14.80
2017-10-02T21:08:53.301Z,14.80
2017-10-02T21:11:19.634Z,14.80
2017-10-02T21:13:46.743Z,14.80
2017-10-02T21:16:13.193Z,14.80
2017-10-02T21:18:39.632Z,14.90
2017-10-02T21:21:06.140Z,14.90
2017-10-02T21:23:32.576Z,14.90
2017-10-02T21:25:58.966Z,14.90
2017-10-02T21:28:25.999Z,14.90
2017-10-02T21:30:52.624Z,14.90
2017-10-02T21:33:18.990Z,14.90
2017-10-02T21:35:45.443Z,14.90
2017-10-02T21:38:11.936Z,14.90
2017-10-02T21:40:39.801Z,14.90
2017-10-02T21:43:06.270Z,14.90
2017-10-02T21:45:33.423Z,15.00
2017-10-02T21:47:59.802Z,15.00
2017-10-02T21:50:26.237Z,15.10
2017-10-02T21:52:52.624Z,15.10
2017-10-02T21:55:19.005Z,15.10
2017-10-02T21:57:45.377Z,15.20
2017-10-02T22:00:11.871Z,15.20
2017-10-02T22:02:38.317Z,15.20
2017-10-02T22:05:04.716Z,15.30
2017-10-02T22:07:32.117Z,15.20
2017-10-02T22:09:59.332Z,15.30
2017-10-02T22:12:25.730Z,15.20
2017-10-02T22:14:52.158Z,15.20
2017-10-02T22:17:18.578Z,15.30
2017-10-02T22:19:45.020Z,15.30
2017-10-02T22:22:11.430Z,15.30
2017-10-02T22:24:37.797Z,15.30
2017-10-02T22:27:04.182Z,15.30
2017-10-02T22:29:30.621Z,15.30
2017-10-02T22:31:57.017Z,15.30
2017-10-02T22:34:23.378Z,15.30
2017-10-02T22:36:49.947Z,15.30
2017-10-02T22:39:16.347Z,15.30
2017-10-02T22:41:42.687Z,15.30
2017-10-02T22:44:09.083Z,15.40
2017-10-02T22:46:35.538Z,15.30
2017-10-02T22:49:01.875Z,15.30
2017-10-02T22:51:28.245Z,15.30
2017-10-02T22:53:54.608Z,15.40
2017-10-02T22:56:21.105Z,15.40
2017-10-02T22:58:48.465Z,15.40
2017-10-02T23:01:15.553Z,15.30
2017-10-02T23:03:41.925Z,15.30
2017-10-02T23:06:08.489Z,15.30
2017-10-02T23:08:34.875Z,15.30
2017-10-02T23:11:01.254Z,15.30
2017-10-02T23:13:28.743Z,15.40
2017-10-02T23:15:55.192Z,15.30
2017-10-02T23:18:21.558Z,15.40
2017-10-02T23:20:48.671Z,15.40
2017-10-02T23:23:15.088Z,15.40
2017-10-02T23:25:41.502Z,15.40
2017-10-02T23:28:08.128Z,15.40
2017-10-02T23:30:34.650Z,15.40
2017-10-02T23:33:01.063Z,15.40
2017-10-02T23:35:27.503Z,15.30
2017-10-02T23:37:53.971Z,15.40
2017-10-02T23:40:20.334Z,15.40
2017-10-02T23:42:46.692Z,15.40
2017-10-02T23:45:13.058Z,15.40
2017-10-02T23:47:40.136Z,15.40
2017-10-02T23:50:06.539Z,15.30
2017-10-02T23:52:33.700Z,15.40
2017-10-02T23:55:00.768Z,15.40
2017-10-02T23:57:27.089Z,15.30
2017-10-02T23:59:53.516Z,15.40
